Orangeburg, SC (29116)

10:54 AM EDT on June 03, 2015 (GMT -0400)
OC Tech | | Change Station
CLOSE
Current Station
Personal Weather Station
Location: Orangeburg, SC
Elevation: 292 ft
Nearby Weather Stations

Elev 292 ft 33.54 °N, 80.83 °W | Updated 24 seconds ago

Mostly Cloudy
Mostly Cloudy
68.7 °F
Feels Like 68.7 °F
N
1.0
Wind Variable Wind from NNE
Gusts 4.0 mph

Today
High -- | Low -- °F
--% Chance of Precip.
Yesterday
High -- | Low -- °F
Precip. -- in
6:13 AM 8:29 PM
Full, 99% visible
Pressure 30.01 in
Visibility 10.0 miles
Clouds Mostly Cloudy 600 ft
Mostly Cloudy 1100 ft
Dew Point 68 °F
Humidity 99%
Rainfall 0.23 in
Snow Depth Not available.
UV 4 out of 12
Pollen 4.70 out of 12
Air Quality Not available.
Flu Activity Local Activity
SPECI KOGB 031441Z AUTO 03004KT 10SM BKN006 BKN011 21/19 A3001 RMK AO2 CIG 004V009 T02110189

More Conditions Fewer Conditions

Pressure 30.01 in
Visibility 10.0 miles
Clouds Mostly Cloudy 600 ft
Mostly Cloudy 1100 ft
Dew Point 68 °F
Humidity 99%
Rainfall 0.23 in
Snow Depth Not available.
UV 4 out of 12
Pollen 4.70 out of 12
Air Quality Not available.
Flu Activity Local Activity
SPECI KOGB 031441Z AUTO 03004KT 10SM BKN006 BKN011 21/19 A3001 RMK AO2 CIG 004V009 T02110189

More Conditions Fewer Conditions

10-Day Weather Forecast

×

Almanac

Astronomy

Jun. 03, 2015 Rise Set
Actual Time
Civil Twilight
Nautical Twilight
Astronomical Twilight
Moon
Length of Visible Light
Length of Day
Tomorrow will be .
, % of the Moon is Illuminated

Today's Extremes

State Highs State Lows

Community

WunderPhotos

Upload Photos

1,826,230 photos uploaded!

WunderBlogs® & News

Nearby

Air Quality

  Air Quality AQ Index Pollutant
Not available.

Snow Depth

Station Depth Elevation

Earthquake Activity

City Distance Mag. Time & Date
Minimum magnitude displayed is 2.5.

Coastal Water Temperatures

Place Temperature

Stations

Nearby Weather Stations

Station Location Temp. Windchill Dew Point Humidity Wind Precip. Elev Updated Type